sensor_id;sensor_type;location;lat;lon;timestamp;temperature;humidity
8939;DHT22;4504;48.810;9.172;2022-07-29T00:01:19;23.30;94.50
8939;DHT22;4504;48.810;9.172;2022-07-29T00:03:46;23.30;94.60
8939;DHT22;4504;48.810;9.172;2022-07-29T00:06:15;23.30;94.80
8939;DHT22;4504;48.810;9.172;2022-07-29T00:08:42;23.20;94.90
8939;DHT22;4504;48.810;9.172;2022-07-29T00:11:09;23.20;95.00
8939;DHT22;4504;48.810;9.172;2022-07-29T00:13:36;23.20;95.10
8939;DHT22;4504;48.810;9.172;2022-07-29T00:16:03;23.10;95.30
8939;DHT22;4504;48.810;9.172;2022-07-29T00:18:30;23.10;95.50
8939;DHT22;4504;48.810;9.172;2022-07-29T00:20:57;23.10;95.60
8939;DHT22;4504;48.810;9.172;2022-07-29T00:23:26;23.10;95.80
8939;DHT22;4504;48.810;9.172;2022-07-29T00:25:53;23.00;95.90
8939;DHT22;4504;48.810;9.172;2022-07-29T00:28:20;23.00;96.00
8939;DHT22;4504;48.810;9.172;2022-07-29T00:30:47;23.00;96.00
8939;DHT22;4504;48.810;9.172;2022-07-29T00:33:14;22.90;96.40
8939;DHT22;4504;48.810;9.172;2022-07-29T00:35:41;22.90;96.30
8939;DHT22;4504;48.810;9.172;2022-07-29T00:38:11;22.90;96.50
8939;DHT22;4504;48.810;9.172;2022-07-29T00:40:39;22.90;96.70
8939;DHT22;4504;48.810;9.172;2022-07-29T00:43:07;22.90;96.70
8939;DHT22;4504;48.810;9.172;2022-07-29T00:45:34;22.90;96.70
8939;DHT22;4504;48.810;9.172;2022-07-29T00:48:02;22.90;96.70
8939;DHT22;4504;48.810;9.172;2022-07-29T00:50:31;22.90;96.90
8939;DHT22;4504;48.810;9.172;2022-07-29T00:52:59;22.90;97.10
8939;DHT22;4504;48.810;9.172;2022-07-29T00:55:27;22.90;97.20
8939;DHT22;4504;48.810;9.172;2022-07-29T00:57:57;22.90;97.20
8939;DHT22;4504;48.810;9.172;2022-07-29T01:00:26;22.80;97.20
8939;DHT22;4504;48.810;9.172;2022-07-29T01:02:54;22.80;97.40
8939;DHT22;4504;48.810;9.172;2022-07-29T01:05:23;22.90;97.50
8939;DHT22;4504;48.810;9.172;2022-07-29T01:07:53;22.80;97.50
8939;DHT22;4504;48.810;9.172;2022-07-29T01:10:21;22.80;97.50
8939;DHT22;4504;48.810;9.172;2022-07-29T01:12:52;22.80;97.60
8939;DHT22;4504;48.810;9.172;2022-07-29T01:25:14;22.70;97.80
8939;DHT22;4504;48.810;9.172;2022-07-29T01:28:01;22.60;97.80
8939;DHT22;4504;48.810;9.172;2022-07-29T01:30:38;22.60;97.70
8939;DHT22;4504;48.810;9.172;2022-07-29T01:33:09;22.60;97.70
8939;DHT22;4504;48.810;9.172;2022-07-29T01:35:58;22.60;97.90
8939;DHT22;4504;48.810;9.172;2022-07-29T01:38:38;22.50;98.20
8939;DHT22;4504;48.810;9.172;2022-07-29T01:41:22;22.50;97.90
8939;DHT22;4504;48.810;9.172;2022-07-29T01:44:22;22.50;97.80
8939;DHT22;4504;48.810;9.172;2022-07-29T01:50:31;22.40;97.90
8939;DHT22;4504;48.810;9.172;2022-07-29T01:53:01;22.40;97.90
8939;DHT22;4504;48.810;9.172;2022-07-29T01:55:34;22.20;98.10
8939;DHT22;4504;48.810;9.172;2022-07-29T01:58:03;22.30;98.30
8939;DHT22;4504;48.810;9.172;2022-07-29T02:00:32;22.30;98.80
8939;DHT22;4504;48.810;9.172;2022-07-29T02:03:03;22.30;98.30
8939;DHT22;4504;48.810;9.172;2022-07-29T02:05:35;22.30;98.30
8939;DHT22;4504;48.810;9.172;2022-07-29T02:08:04;22.30;98.40
8939;DHT22;4504;48.810;9.172;2022-07-29T02:10:33;22.30;98.50
8939;DHT22;4504;48.810;9.172;2022-07-29T02:13:02;22.20;98.50
8939;DHT22;4504;48.810;9.172;2022-07-29T02:15:32;22.20;98.70
8939;DHT22;4504;48.810;9.172;2022-07-29T02:18:01;22.30;98.60
8939;DHT22;4504;48.810;9.172;2022-07-29T02:20:36;22.20;98.60
8939;DHT22;4504;48.810;9.172;2022-07-29T02:23:04;22.30;98.90
8939;DHT22;4504;48.810;9.172;2022-07-29T02:25:34;22.30;98.90
8939;DHT22;4504;48.810;9.172;2022-07-29T02:28:02;22.30;98.80
8939;DHT22;4504;48.810;9.172;2022-07-29T02:30:31;22.30;98.70
8939;DHT22;4504;48.810;9.172;2022-07-29T02:32:59;22.30;98.70
8939;DHT22;4504;48.810;9.172;2022-07-29T02:35:26;22.30;98.90
8939;DHT22;4504;48.810;9.172;2022-07-29T02:37:55;22.20;99.10
8939;DHT22;4504;48.810;9.172;2022-07-29T02:40:43;22.20;99.20
8939;DHT22;4504;48.810;9.172;2022-07-29T02:43:11;22.20;99.10
8939;DHT22;4504;48.810;9.172;2022-07-29T02:45:38;22.20;99.10
8939;DHT22;4504;48.810;9.172;2022-07-29T02:48:09;22.20;99.10
8939;DHT22;4504;48.810;9.172;2022-07-29T02:50:44;22.20;99.10
8939;DHT22;4504;48.810;9.172;2022-07-29T02:53:18;22.20;99.20
8939;DHT22;4504;48.810;9.172;2022-07-29T02:55:51;22.10;99.10
8939;DHT22;4504;48.810;9.172;2022-07-29T02:58:27;22.10;99.20
8939;DHT22;4504;48.810;9.172;2022-07-29T03:00:57;22.00;99.30
8939;DHT22;4504;48.810;9.172;2022-07-29T03:03:30;22.00;99.50
8939;DHT22;4504;48.810;9.172;2022-07-29T03:06:01;22.10;99.30
8939;DHT22;4504;48.810;9.172;2022-07-29T03:08:31;22.10;99.50
8939;DHT22;4504;48.810;9.172;2022-07-29T03:10:59;22.10;99.40
8939;DHT22;4504;48.810;9.172;2022-07-29T03:13:27;22.10;99.40
8939;DHT22;4504;48.810;9.172;2022-07-29T03:15:57;22.00;99.50
8939;DHT22;4504;48.810;9.172;2022-07-29T03:18:24;22.00;99.70
8939;DHT22;4504;48.810;9.172;2022-07-29T03:20:51;22.00;99.70
8939;DHT22;4504;48.810;9.172;2022-07-29T03:23:19;21.90;99.70
8939;DHT22;4504;48.810;9.172;2022-07-29T03:25:48;21.90;99.90
8939;DHT22;4504;48.810;9.172;2022-07-29T03:28:15;21.90;99.90
8939;DHT22;4504;48.810;9.172;2022-07-29T03:30:42;21.80;99.90
8939;DHT22;4504;48.810;9.172;2022-07-29T03:33:09;21.90;99.90
8939;DHT22;4504;48.810;9.172;2022-07-29T03:35:36;21.90;99.90
8939;DHT22;4504;48.810;9.172;2022-07-29T03:38:03;21.80;99.90
8939;DHT22;4504;48.810;9.172;2022-07-29T03:40:33;21.80;99.90
8939;DHT22;4504;48.810;9.172;2022-07-29T03:43:04;21.90;99.90
8939;DHT22;4504;48.810;9.172;2022-07-29T03:45:33;21.80;99.90
8939;DHT22;4504;48.810;9.172;2022-07-29T03:48:05;21.80;99.90
8939;DHT22;4504;48.810;9.172;2022-07-29T03:50:34;21.80;99.90
8939;DHT22;4504;48.810;9.172;2022-07-29T03:53:02;21.70;99.90
8939;DHT22;4504;48.810;9.172;2022-07-29T03:55:33;21.70;99.90
8939;DHT22;4504;48.810;9.172;2022-07-29T03:58:04;21.70;99.90
8939;DHT22;4504;48.810;9.172;2022-07-29T04:00:32;21.70;99.90
8939;DHT22;4504;48.810;9.172;2022-07-29T04:03:00;21.70;99.90
8939;DHT22;4504;48.810;9.172;2022-07-29T04:05:27;21.70;99.90
8939;DHT22;4504;48.810;9.172;2022-07-29T04:07:54;21.60;99.90
8939;DHT22;4504;48.810;9.172;2022-07-29T04:10:22;21.70;99.90
8939;DHT22;4504;48.810;9.172;2022-07-29T04:12:49;21.70;99.90
8939;DHT22;4504;48.810;9.172;2022-07-29T04:15:18;21.70;99.90
8939;DHT22;4504;48.810;9.172;2022-07-29T04:17:45;21.60;99.90
8939;DHT22;4504;48.810;9.172;2022-07-29T04:20:12;21.60;99.90
8939;DHT22;4504;48.810;9.172;2022-07-29T04:22:39;21.60;99.90
8939;DHT22;4504;48.810;9.172;2022-07-29T04:25:07;21.70;99.90
8939;DHT22;4504;48.810;9.172;2022-07-29T04:27:34;21.60;99.90
8939;DHT22;4504;48.810;9.172;2022-07-29T04:30:01;21.60;99.90
8939;DHT22;4504;48.810;9.172;2022-07-29T04:32:30;21.60;99.90
8939;DHT22;4504;48.810;9.172;2022-07-29T04:34:57;21.60;99.90
8939;DHT22;4504;48.810;9.172;2022-07-29T04:37:24;21.60;99.90
8939;DHT22;4504;48.810;9.172;2022-07-29T04:39:51;21.60;99.90
8939;DHT22;4504;48.810;9.172;2022-07-29T04:42:18;21.60;99.90
8939;DHT22;4504;48.810;9.172;2022-07-29T04:44:45;21.50;99.90
8939;DHT22;4504;48.810;9.172;2022-07-29T04:47:12;21.50;99.90
8939;DHT22;4504;48.810;9.172;2022-07-29T04:49:40;21.60;99.90
8939;DHT22;4504;48.810;9.172;2022-07-29T04:52:08;21.50;99.90
8939;DHT22;4504;48.810;9.172;2022-07-29T04:54:35;21.60;99.90
8939;DHT22;4504;48.810;9.172;2022-07-29T04:57:02;21.60;99.90
8939;DHT22;4504;48.810;9.172;2022-07-29T04:59:29;21.60;99.90
8939;DHT22;4504;48.810;9.172;2022-07-29T05:01:56;21.60;99.90
8939;DHT22;4504;48.810;9.172;2022-07-29T05:04:23;21.70;99.90
8939;DHT22;4504;48.810;9.172;2022-07-29T05:06:51;21.70;99.90
8939;DHT22;4504;48.810;9.172;2022-07-29T05:09:18;21.70;99.90
8939;DHT22;4504;48.810;9.172;2022-07-29T05:11:45;21.70;99.90
8939;DHT22;4504;48.810;9.172;2022-07-29T05:14:13;21.70;99.90
8939;DHT22;4504;48.810;9.172;2022-07-29T05:16:40;21.70;99.90
8939;DHT22;4504;48.810;9.172;2022-07-29T05:19:07;21.70;99.90
8939;DHT22;4504;48.810;9.172;2022-07-29T05:21:34;21.70;99.90
8939;DHT22;4504;48.810;9.172;2022-07-29T05:24:03;21.70;99.90
8939;DHT22;4504;48.810;9.172;2022-07-29T05:26:30;21.80;99.90
8939;DHT22;4504;48.810;9.172;2022-07-29T05:28:57;21.70;99.90
8939;DHT22;4504;48.810;9.172;2022-07-29T05:31:24;21.80;99.90
8939;DHT22;4504;48.810;9.172;2022-07-29T05:33:51;21.70;99.90
8939;DHT22;4504;48.810;9.172;2022-07-29T05:36:19;21.90;99.90
8939;DHT22;4504;48.810;9.172;2022-07-29T05:38:46;21.80;99.90
8939;DHT22;4504;48.810;9.172;2022-07-29T05:41:14;21.80;99.70
8939;DHT22;4504;48.810;9.172;2022-07-29T05:43:41;21.80;99.70
8939;DHT22;4504;48.810;9.172;2022-07-29T05:46:08;21.90;99.90
8939;DHT22;4504;48.810;9.172;2022-07-29T05:48:35;21.90;99.70
8939;DHT22;4504;48.810;9.172;2022-07-29T05:51:02;21.90;99.50
8939;DHT22;4504;48.810;9.172;2022-07-29T05:53:30;22.00;99.60
8939;DHT22;4504;48.810;9.172;2022-07-29T05:55:57;22.00;99.70
8939;DHT22;4504;48.810;9.172;2022-07-29T05:58:26;22.00;99.40
8939;DHT22;4504;48.810;9.172;2022-07-29T06:00:54;22.00;99.40
8939;DHT22;4504;48.810;9.172;2022-07-29T06:03:24;22.10;99.00
8939;DHT22;4504;48.810;9.172;2022-07-29T06:05:51;22.20;99.00
8939;DHT22;4504;48.810;9.172;2022-07-29T06:08:18;22.10;99.00
8939;DHT22;4504;48.810;9.172;2022-07-29T06:10:46;22.20;99.00
8939;DHT22;4504;48.810;9.172;2022-07-29T06:13:13;22.20;99.00
8939;DHT22;4504;48.810;9.172;2022-07-29T06:15:43;22.30;99.20
8939;DHT22;4504;48.810;9.172;2022-07-29T06:18:12;22.40;99.10
8939;DHT22;4504;48.810;9.172;2022-07-29T06:20:39;22.40;98.80
8939;DHT22;4504;48.810;9.172;2022-07-29T06:23:06;22.40;98.60
8939;DHT22;4504;48.810;9.172;2022-07-29T06:25:33;22.50;98.30
8939;DHT22;4504;48.810;9.172;2022-07-29T06:28:02;22.50;98.50
8939;DHT22;4504;48.810;9.172;2022-07-29T06:30:29;22.50;98.30
8939;DHT22;4504;48.810;9.172;2022-07-29T06:32:58;22.60;98.10
8939;DHT22;4504;48.810;9.172;2022-07-29T06:35:25;22.50;98.30
8939;DHT22;4504;48.810;9.172;2022-07-29T06:37:52;22.60;98.20
8939;DHT22;4504;48.810;9.172;2022-07-29T06:40:20;22.60;97.70
8939;DHT22;4504;48.810;9.172;2022-07-29T06:43:04;22.80;97.60
8939;DHT22;4504;48.810;9.172;2022-07-29T06:45:33;22.80;97.40
8939;DHT22;4504;48.810;9.172;2022-07-29T06:48:02;22.90;97.90
8939;DHT22;4504;48.810;9.172;2022-07-29T06:50:29;22.90;97.50
8939;DHT22;4504;48.810;9.172;2022-07-29T06:52:56;22.90;97.80
8939;DHT22;4504;48.810;9.172;2022-07-29T06:55:23;23.00;97.80
8939;DHT22;4504;48.810;9.172;2022-07-29T06:57:50;23.00;98.80
8939;DHT22;4504;48.810;9.172;2022-07-29T07:00:17;23.10;98.60
8939;DHT22;4504;48.810;9.172;2022-07-29T07:02:44;23.10;97.90
8939;DHT22;4504;48.810;9.172;2022-07-29T07:05:12;23.20;98.20
8939;DHT22;4504;48.810;9.172;2022-07-29T07:07:39;23.20;96.80
8939;DHT22;4504;48.810;9.172;2022-07-29T07:10:07;23.20;96.50
8939;DHT22;4504;48.810;9.172;2022-07-29T07:12:34;23.20;96.80
8939;DHT22;4504;48.810;9.172;2022-07-29T07:15:02;23.20;96.70
8939;DHT22;4504;48.810;9.172;2022-07-29T07:17:29;23.20;97.00
8939;DHT22;4504;48.810;9.172;2022-07-29T07:19:56;23.30;96.10
8939;DHT22;4504;48.810;9.172;2022-07-29T07:22:24;23.40;95.50
8939;DHT22;4504;48.810;9.172;2022-07-29T07:24:51;23.40;95.60
8939;DHT22;4504;48.810;9.172;2022-07-29T07:27:18;23.50;96.10
8939;DHT22;4504;48.810;9.172;2022-07-29T07:29:45;23.50;96.30
8939;DHT22;4504;48.810;9.172;2022-07-29T07:32:12;23.60;95.40
8939;DHT22;4504;48.810;9.172;2022-07-29T07:34:41;23.60;94.90
8939;DHT22;4504;48.810;9.172;2022-07-29T07:37:08;23.60;94.50
8939;DHT22;4504;48.810;9.172;2022-07-29T07:39:37;23.60;94.20
8939;DHT22;4504;48.810;9.172;2022-07-29T07:42:04;23.60;94.30
8939;DHT22;4504;48.810;9.172;2022-07-29T07:44:31;23.60;94.10
8939;DHT22;4504;48.810;9.172;2022-07-29T07:46:58;23.60;94.40
8939;DHT22;4504;48.810;9.172;2022-07-29T07:49:25;23.70;94.80
8939;DHT22;4504;48.810;9.172;2022-07-29T07:51:52;23.70;94.80
8939;DHT22;4504;48.810;9.172;2022-07-29T07:54:19;23.70;94.10
8939;DHT22;4504;48.810;9.172;2022-07-29T07:56:48;23.70;93.50
8939;DHT22;4504;48.810;9.172;2022-07-29T07:59:15;23.80;93.80
8939;DHT22;4504;48.810;9.172;2022-07-29T08:01:43;23.80;93.30
8939;DHT22;4504;48.810;9.172;2022-07-29T08:04:09;23.80;93.30
8939;DHT22;4504;48.810;9.172;2022-07-29T08:06:37;23.80;93.70
8939;DHT22;4504;48.810;9.172;2022-07-29T08:09:04;23.90;93.80
8939;DHT22;4504;48.810;9.172;2022-07-29T08:11:31;23.80;93.30
8939;DHT22;4504;48.810;9.172;2022-07-29T08:14:00;23.80;93.80
8939;DHT22;4504;48.810;9.172;2022-07-29T08:16:27;24.00;93.20
8939;DHT22;4504;48.810;9.172;2022-07-29T08:18:54;24.00;93.30
8939;DHT22;4504;48.810;9.172;2022-07-29T08:21:23;24.00;93.00
8939;DHT22;4504;48.810;9.172;2022-07-29T08:23:51;24.00;93.30
8939;DHT22;4504;48.810;9.172;2022-07-29T08:26:39;23.90;93.00
8939;DHT22;4504;48.810;9.172;2022-07-29T08:29:08;23.90;93.20
8939;DHT22;4504;48.810;9.172;2022-07-29T08:31:35;24.00;93.00
8939;DHT22;4504;48.810;9.172;2022-07-29T08:34:03;24.10;92.40
8939;DHT22;4504;48.810;9.172;2022-07-29T08:36:30;24.20;91.50
8939;DHT22;4504;48.810;9.172;2022-07-29T08:38:57;24.20;91.30
8939;DHT22;4504;48.810;9.172;2022-07-29T08:41:24;24.30;89.40
8939;DHT22;4504;48.810;9.172;2022-07-29T08:43:52;24.30;89.00
8939;DHT22;4504;48.810;9.172;2022-07-29T08:46:21;24.40;88.10
8939;DHT22;4504;48.810;9.172;2022-07-29T08:48:49;24.40;89.10
8939;DHT22;4504;48.810;9.172;2022-07-29T08:51:18;24.40;89.50
8939;DHT22;4504;48.810;9.172;2022-07-29T08:53:47;24.40;88.90
8939;DHT22;4504;48.810;9.172;2022-07-29T08:56:16;24.50;86.90
8939;DHT22;4504;48.810;9.172;2022-07-29T08:58:44;24.50;86.10
8939;DHT22;4504;48.810;9.172;2022-07-29T09:01:13;24.50;85.70
8939;DHT22;4504;48.810;9.172;2022-07-29T09:03:44;24.60;86.40
8939;DHT22;4504;48.810;9.172;2022-07-29T09:06:13;24.60;86.80
8939;DHT22;4504;48.810;9.172;2022-07-29T09:08:41;24.60;86.60
8939;DHT22;4504;48.810;9.172;2022-07-29T09:11:08;24.80;84.30
8939;DHT22;4504;48.810;9.172;2022-07-29T09:13:37;24.80;84.10
8939;DHT22;4504;48.810;9.172;2022-07-29T09:16:04;24.80;83.90
8939;DHT22;4504;48.810;9.172;2022-07-29T09:18:35;24.90;85.30
8939;DHT22;4504;48.810;9.172;2022-07-29T09:21:05;24.90;83.50
8939;DHT22;4504;48.810;9.172;2022-07-29T09:24:01;24.90;84.40
8939;DHT22;4504;48.810;9.172;2022-07-29T09:26:29;25.00;83.80
8939;DHT22;4504;48.810;9.172;2022-07-29T09:28:57;25.00;83.40
8939;DHT22;4504;48.810;9.172;2022-07-29T09:31:32;25.10;82.70
8939;DHT22;4504;48.810;9.172;2022-07-29T09:34:00;25.10;82.20
8939;DHT22;4504;48.810;9.172;2022-07-29T09:36:28;25.10;85.20
8939;DHT22;4504;48.810;9.172;2022-07-29T09:38:59;25.20;84.20
8939;DHT22;4504;48.810;9.172;2022-07-29T09:41:27;25.30;82.40
8939;DHT22;4504;48.810;9.172;2022-07-29T09:43:55;25.20;81.60
8939;DHT22;4504;48.810;9.172;2022-07-29T09:46:22;25.10;83.30
8939;DHT22;4504;48.810;9.172;2022-07-29T09:49:06;25.10;84.10
8939;DHT22;4504;48.810;9.172;2022-07-29T09:51:35;25.30;85.00
8939;DHT22;4504;48.810;9.172;2022-07-29T09:54:03;25.40;83.10
8939;DHT22;4504;48.810;9.172;2022-07-29T09:56:47;25.40;82.70
8939;DHT22;4504;48.810;9.172;2022-07-29T09:59:14;25.50;81.70
8939;DHT22;4504;48.810;9.172;2022-07-29T10:01:42;25.60;81.70
8939;DHT22;4504;48.810;9.172;2022-07-29T10:04:09;25.80;79.60
8939;DHT22;4504;48.810;9.172;2022-07-29T10:06:55;25.70;80.40
8939;DHT22;4504;48.810;9.172;2022-07-29T10:09:23;25.70;80.50
8939;DHT22;4504;48.810;9.172;2022-07-29T10:12:03;25.70;82.70
8939;DHT22;4504;48.810;9.172;2022-07-29T10:14:31;25.70;82.20
8939;DHT22;4504;48.810;9.172;2022-07-29T10:16:59;25.70;82.60
8939;DHT22;4504;48.810;9.172;2022-07-29T10:19:28;25.60;82.30
8939;DHT22;4504;48.810;9.172;2022-07-29T10:21:57;25.50;82.50
8939;DHT22;4504;48.810;9.172;2022-07-29T10:24:26;25.50;82.90
8939;DHT22;4504;48.810;9.172;2022-07-29T10:26:55;25.50;84.60
8939;DHT22;4504;48.810;9.172;2022-07-29T10:29:22;25.50;84.40
8939;DHT22;4504;48.810;9.172;2022-07-29T10:32:07;25.50;83.50
8939;DHT22;4504;48.810;9.172;2022-07-29T10:34:57;25.50;83.60
8939;DHT22;4504;48.810;9.172;2022-07-29T10:37:33;25.50;84.60
8939;DHT22;4504;48.810;9.172;2022-07-29T10:40:09;25.50;83.90
8939;DHT22;4504;48.810;9.172;2022-07-29T10:42:52;25.50;84.80
8939;DHT22;4504;48.810;9.172;2022-07-29T10:45:20;25.40;84.50
8939;DHT22;4504;48.810;9.172;2022-07-29T10:47:48;25.50;85.80
8939;DHT22;4504;48.810;9.172;2022-07-29T10:50:15;25.40;84.30
8939;DHT22;4504;48.810;9.172;2022-07-29T10:52:56;25.40;84.60
8939;DHT22;4504;48.810;9.172;2022-07-29T10:55:34;25.40;84.80
8939;DHT22;4504;48.810;9.172;2022-07-29T10:58:16;25.40;84.70
8939;DHT22;4504;48.810;9.172;2022-07-29T11:00:44;25.30;86.10
8939;DHT22;4504;48.810;9.172;2022-07-29T11:03:43;25.30;85.70
8939;DHT22;4504;48.810;9.172;2022-07-29T11:06:11;25.30;86.10
8939;DHT22;4504;48.810;9.172;2022-07-29T11:08:40;25.30;87.30
8939;DHT22;4504;48.810;9.172;2022-07-29T11:11:31;25.20;86.20
8939;DHT22;4504;48.810;9.172;2022-07-29T11:13:59;25.20;88.20
8939;DHT22;4504;48.810;9.172;2022-07-29T11:16:26;25.20;91.60
8939;DHT22;4504;48.810;9.172;2022-07-29T11:19:20;25.10;91.70
8939;DHT22;4504;48.810;9.172;2022-07-29T11:21:48;25.10;92.10
8939;DHT22;4504;48.810;9.172;2022-07-29T11:24:19;25.10;92.50
8939;DHT22;4504;48.810;9.172;2022-07-29T11:27:09;24.90;92.70
8939;DHT22;4504;48.810;9.172;2022-07-29T11:29:41;24.80;94.10
8939;DHT22;4504;48.810;9.172;2022-07-29T11:32:14;24.70;94.70
8939;DHT22;4504;48.810;9.172;2022-07-29T11:34:43;24.60;95.10
8939;DHT22;4504;48.810;9.172;2022-07-29T11:37:28;24.50;95.50
8939;DHT22;4504;48.810;9.172;2022-07-29T11:40:12;24.30;95.80
8939;DHT22;4504;48.810;9.172;2022-07-29T11:42:45;24.30;95.70
8939;DHT22;4504;48.810;9.172;2022-07-29T11:45:31;24.30;96.40
8939;DHT22;4504;48.810;9.172;2022-07-29T11:48:18;24.40;97.10
8939;DHT22;4504;48.810;9.172;2022-07-29T11:50:45;24.40;97.60
8939;DHT22;4504;48.810;9.172;2022-07-29T11:53:13;24.40;97.30
8939;DHT22;4504;48.810;9.172;2022-07-29T11:55:42;24.40;97.00
8939;DHT22;4504;48.810;9.172;2022-07-29T11:58:09;24.50;96.80
8939;DHT22;4504;48.810;9.172;2022-07-29T12:00:38;24.50;96.50
8939;DHT22;4504;48.810;9.172;2022-07-29T12:03:08;24.50;95.80
8939;DHT22;4504;48.810;9.172;2022-07-29T12:05:38;24.50;95.40
8939;DHT22;4504;48.810;9.172;2022-07-29T12:08:08;24.50;95.30
8939;DHT22;4504;48.810;9.172;2022-07-29T12:10:35;24.50;95.70
8939;DHT22;4504;48.810;9.172;2022-07-29T12:13:04;24.60;95.00
8939;DHT22;4504;48.810;9.172;2022-07-29T12:15:32;24.60;95.80
8939;DHT22;4504;48.810;9.172;2022-07-29T12:18:09;24.60;95.40
8939;DHT22;4504;48.810;9.172;2022-07-29T12:20:37;24.80;95.20
8939;DHT22;4504;48.810;9.172;2022-07-29T12:23:05;24.80;95.30
8939;DHT22;4504;48.810;9.172;2022-07-29T12:25:34;24.80;95.00
8939;DHT22;4504;48.810;9.172;2022-07-29T12:28:05;24.90;95.30
8939;DHT22;4504;48.810;9.172;2022-07-29T12:30:38;24.90;94.30
8939;DHT22;4504;48.810;9.172;2022-07-29T12:33:21;24.90;94.20
8939;DHT22;4504;48.810;9.172;2022-07-29T12:35:50;24.80;94.20
8939;DHT22;4504;48.810;9.172;2022-07-29T12:38:18;24.80;94.00
8939;DHT22;4504;48.810;9.172;2022-07-29T12:40:47;24.80;93.90
8939;DHT22;4504;48.810;9.172;2022-07-29T12:43:19;24.80;94.00
8939;DHT22;4504;48.810;9.172;2022-07-29T12:45:47;24.80;93.30
8939;DHT22;4504;48.810;9.172;2022-07-29T12:48:16;24.70;93.20
8939;DHT22;4504;48.810;9.172;2022-07-29T12:50:55;24.60;93.00
8939;DHT22;4504;48.810;9.172;2022-07-29T12:53:22;24.40;92.10
8939;DHT22;4504;48.810;9.172;2022-07-29T12:55:51;24.30;92.30
8939;DHT22;4504;48.810;9.172;2022-07-29T12:58:31;24.30;92.50
8939;DHT22;4504;48.810;9.172;2022-07-29T13:01:04;24.20;92.10
8939;DHT22;4504;48.810;9.172;2022-07-29T13:03:52;24.20;91.80
8939;DHT22;4504;48.810;9.172;2022-07-29T13:06:30;24.20;91.50
8939;DHT22;4504;48.810;9.172;2022-07-29T13:09:04;24.20;91.50
8939;DHT22;4504;48.810;9.172;2022-07-29T13:11:33;24.20;91.40
8939;DHT22;4504;48.810;9.172;2022-07-29T13:14:02;24.20;91.30
8939;DHT22;4504;48.810;9.172;2022-07-29T13:16:29;24.20;91.30
8939;DHT22;4504;48.810;9.172;2022-07-29T13:19:08;24.00;91.40
8939;DHT22;4504;48.810;9.172;2022-07-29T13:21:35;24.00;91.00
8939;DHT22;4504;48.810;9.172;2022-07-29T13:24:03;24.00;90.90
8939;DHT22;4504;48.810;9.172;2022-07-29T13:26:31;23.80;91.50
8939;DHT22;4504;48.810;9.172;2022-07-29T13:28:58;23.90;92.10
8939;DHT22;4504;48.810;9.172;2022-07-29T13:31:27;23.80;92.60
8939;DHT22;4504;48.810;9.172;2022-07-29T13:33:54;23.70;93.50
8939;DHT22;4504;48.810;9.172;2022-07-29T13:36:22;23.60;94.70
8939;DHT22;4504;48.810;9.172;2022-07-29T13:38:49;23.60;95.40
8939;DHT22;4504;48.810;9.172;2022-07-29T13:41:16;23.50;96.00
8939;DHT22;4504;48.810;9.172;2022-07-29T13:43:43;23.50;96.60
8939;DHT22;4504;48.810;9.172;2022-07-29T13:46:10;23.40;97.10
8939;DHT22;4504;48.810;9.172;2022-07-29T13:48:39;23.40;97.90
8939;DHT22;4504;48.810;9.172;2022-07-29T13:51:07;23.50;97.70
8939;DHT22;4504;48.810;9.172;2022-07-29T13:53:34;23.50;98.30
8939;DHT22;4504;48.810;9.172;2022-07-29T13:56:02;23.40;98.00
8939;DHT22;4504;48.810;9.172;2022-07-29T13:58:31;23.50;97.90
8939;DHT22;4504;48.810;9.172;2022-07-29T14:00:58;23.50;98.10
8939;DHT22;4504;48.810;9.172;2022-07-29T14:03:25;23.60;97.80
8939;DHT22;4504;48.810;9.172;2022-07-29T14:05:54;23.60;98.40
8939;DHT22;4504;48.810;9.172;2022-07-29T14:08:22;23.70;98.90
8939;DHT22;4504;48.810;9.172;2022-07-29T14:10:49;23.80;99.50
8939;DHT22;4504;48.810;9.172;2022-07-29T14:13:16;23.90;99.90
8939;DHT22;4504;48.810;9.172;2022-07-29T14:15:43;24.00;99.20
8939;DHT22;4504;48.810;9.172;2022-07-29T14:18:10;24.00;98.50
8939;DHT22;4504;48.810;9.172;2022-07-29T14:20:37;24.10;98.00
8939;DHT22;4504;48.810;9.172;2022-07-29T14:23:06;24.20;97.40
8939;DHT22;4504;48.810;9.172;2022-07-29T14:25:33;24.40;96.80
8939;DHT22;4504;48.810;9.172;2022-07-29T14:28:00;24.40;96.30
8939;DHT22;4504;48.810;9.172;2022-07-29T14:30:27;24.40;96.10
8939;DHT22;4504;48.810;9.172;2022-07-29T14:32:54;24.40;95.80
8939;DHT22;4504;48.810;9.172;2022-07-29T14:35:21;24.50;96.00
8939;DHT22;4504;48.810;9.172;2022-07-29T14:37:48;24.60;96.00
8939;DHT22;4504;48.810;9.172;2022-07-29T14:40:17;24.60;95.00
8939;DHT22;4504;48.810;9.172;2022-07-29T14:42:44;24.60;94.50
8939;DHT22;4504;48.810;9.172;2022-07-29T14:45:11;24.70;94.90
8939;DHT22;4504;48.810;9.172;2022-07-29T14:47:38;24.70;94.40
8939;DHT22;4504;48.810;9.172;2022-07-29T14:50:06;24.80;94.10
8939;DHT22;4504;48.810;9.172;2022-07-29T14:52:34;24.80;93.50
8939;DHT22;4504;48.810;9.172;2022-07-29T14:55:01;24.80;93.30
8939;DHT22;4504;48.810;9.172;2022-07-29T14:57:30;24.80;92.60
8939;DHT22;4504;48.810;9.172;2022-07-29T14:59:57;24.80;92.70
8939;DHT22;4504;48.810;9.172;2022-07-29T15:02:24;24.90;92.50
8939;DHT22;4504;48.810;9.172;2022-07-29T15:04:51;24.90;92.50
8939;DHT22;4504;48.810;9.172;2022-07-29T15:07:18;25.00;91.80
8939;DHT22;4504;48.810;9.172;2022-07-29T15:09:46;25.00;92.30
8939;DHT22;4504;48.810;9.172;2022-07-29T15:12:13;25.10;92.50
8939;DHT22;4504;48.810;9.172;2022-07-29T15:14:42;25.10;92.00
8939;DHT22;4504;48.810;9.172;2022-07-29T15:17:09;25.10;92.20
8939;DHT22;4504;48.810;9.172;2022-07-29T15:19:37;25.10;92.20
8939;DHT22;4504;48.810;9.172;2022-07-29T15:22:04;25.20;92.10
8939;DHT22;4504;48.810;9.172;2022-07-29T15:24:31;25.20;91.60
8939;DHT22;4504;48.810;9.172;2022-07-29T15:26:58;25.20;91.80
8939;DHT22;4504;48.810;9.172;2022-07-29T15:29:25;25.20;92.20
8939;DHT22;4504;48.810;9.172;2022-07-29T15:31:53;25.30;92.60
8939;DHT22;4504;48.810;9.172;2022-07-29T15:34:21;25.30;92.40
8939;DHT22;4504;48.810;9.172;2022-07-29T15:36:49;25.30;93.70
8939;DHT22;4504;48.810;9.172;2022-07-29T15:39:16;25.30;94.70
8939;DHT22;4504;48.810;9.172;2022-07-29T15:41:44;25.40;95.10
8939;DHT22;4504;48.810;9.172;2022-07-29T15:44:11;25.40;95.40
8939;DHT22;4504;48.810;9.172;2022-07-29T15:46:38;25.50;95.60
8939;DHT22;4504;48.810;9.172;2022-07-29T15:49:23;25.40;95.90
8939;DHT22;4504;48.810;9.172;2022-07-29T15:51:56;25.40;96.00
8939;DHT22;4504;48.810;9.172;2022-07-29T15:54:24;25.40;96.10
8939;DHT22;4504;48.810;9.172;2022-07-29T15:56:51;25.40;96.40
8939;DHT22;4504;48.810;9.172;2022-07-29T15:59:18;25.40;96.50
8939;DHT22;4504;48.810;9.172;2022-07-29T16:01:45;25.40;96.60
8939;DHT22;4504;48.810;9.172;2022-07-29T16:04:12;25.40;96.70
8939;DHT22;4504;48.810;9.172;2022-07-29T16:06:41;25.40;96.80
8939;DHT22;4504;48.810;9.172;2022-07-29T16:09:08;25.40;96.90
8939;DHT22;4504;48.810;9.172;2022-07-29T16:11:36;25.40;96.60
8939;DHT22;4504;48.810;9.172;2022-07-29T16:14:03;25.40;96.60
8939;DHT22;4504;48.810;9.172;2022-07-29T16:16:30;25.30;96.40
8939;DHT22;4504;48.810;9.172;2022-07-29T16:18:58;25.30;96.80
8939;DHT22;4504;48.810;9.172;2022-07-29T16:21:25;25.30;97.00
8939;DHT22;4504;48.810;9.172;2022-07-29T16:23:53;25.30;97.50
8939;DHT22;4504;48.810;9.172;2022-07-29T16:26:20;25.30;97.90
8939;DHT22;4504;48.810;9.172;2022-07-29T16:28:47;25.40;98.20
8939;DHT22;4504;48.810;9.172;2022-07-29T16:31:14;25.40;98.10